Aviation Digital Data Service (ADDS)

Output produced by TAFs form (0045 UTC 26 July 2017)
found at http://aviationweather.gov/adds/tafs/
 
KMTJ 252355Z 2600/2624 27010G18KT P6SM -SHRA VCTS OVC060CB 
     TEMPO 2600/2602 VRB15G26KT 3SM TSRA SCT020CB OVC040 
     FM260200 16007KT P6SM -SHRA VCTS OVC050CB 
     FM260700 VRB04KT P6SM BKN040 
     FM262200 31010KT P6SM BKN080